createdAt,value
2023-04-05T00:00:35.916Z,57.34
2023-04-05T00:01:35.925Z,57.14
2023-04-05T00:02:35.909Z,57.24
2023-04-05T00:03:35.964Z,57.34
2023-04-05T00:04:35.960Z,57.14
2023-04-05T00:05:35.849Z,57.27
2023-04-05T00:06:35.846Z,57.37
2023-04-05T00:07:35.826Z,57.06
2023-04-05T00:08:35.815Z,56.86
2023-04-05T00:09:35.802Z,56.86
2023-04-05T00:10:35.792Z,56.75
2023-04-05T00:11:35.788Z,56.75
2023-04-05T00:12:35.770Z,56.75
2023-04-05T00:13:35.780Z,56.75
2023-04-05T00:14:35.745Z,56.65
2023-04-05T00:15:35.737Z,56.54
2023-04-05T00:16:35.741Z,56.75
2023-04-05T00:17:35.739Z,56.96
2023-04-05T00:18:35.700Z,57.17
2023-04-05T00:19:35.688Z,57.06
2023-04-05T00:20:35.683Z,57.27
2023-04-05T00:21:35.685Z,57.37
2023-04-05T00:22:35.655Z,57.48
2023-04-05T00:23:35.652Z,57.71
2023-04-05T00:24:35.634Z,58.02
2023-04-05T00:25:35.623Z,58.12
2023-04-05T00:26:35.614Z,58.23
2023-04-05T00:27:35.602Z,58.56
2023-04-05T00:28:35.589Z,58.67
2023-04-05T00:29:35.612Z,58.77
2023-04-05T00:30:35.564Z,58.98
2023-04-05T00:31:35.586Z,58.88
2023-04-05T00:32:35.595Z,58.88
2023-04-05T00:33:35.532Z,58.88
2023-04-05T00:34:35.521Z,59.08
2023-04-05T00:35:35.544Z,58.98
2023-04-05T00:36:35.500Z,59.19
2023-04-05T00:37:35.491Z,59.29
2023-04-05T00:38:35.472Z,59.08
2023-04-05T00:39:35.462Z,59.08
2023-04-05T00:40:35.449Z,59.08
2023-04-05T00:41:35.438Z,59.08
2023-04-05T00:42:35.426Z,59.08
2023-04-05T00:43:35.413Z,59.19
2023-04-05T00:44:35.403Z,59.32
2023-04-05T00:45:35.423Z,59.53
2023-04-05T00:46:35.383Z,59.63
2023-04-05T00:47:35.508Z,59.63
2023-04-05T00:48:35.357Z,59.53
2023-04-05T00:49:35.359Z,59.53
2023-04-05T00:50:35.338Z,59.74
2023-04-05T00:51:35.333Z,59.63
2023-04-05T00:52:35.314Z,59.74
2023-04-05T00:53:35.304Z,59.94
2023-04-05T00:54:35.290Z,60.18
2023-04-05T00:55:35.279Z,60.29
2023-04-05T00:56:35.269Z,60.39
2023-04-05T00:57:35.258Z,60.39
2023-04-05T00:58:35.247Z,60.39
2023-04-05T00:59:35.258Z,60.60
2023-04-05T01:00:35.227Z,60.60
2023-04-05T01:01:35.281Z,60.60
2023-04-05T01:02:35.223Z,60.70
2023-04-05T01:03:35.196Z,60.70
2023-04-05T01:04:35.195Z,60.60
2023-04-05T01:05:35.164Z,60.49
2023-04-05T01:06:35.152Z,60.49
2023-04-05T01:07:35.140Z,60.49
2023-04-05T01:08:35.129Z,60.49
2023-04-05T01:09:35.118Z,60.49
2023-04-05T01:10:35.117Z,60.49
2023-04-05T01:11:35.095Z,60.60
2023-04-05T01:12:35.083Z,60.60
2023-04-05T01:13:35.078Z,60.18
2023-04-05T01:14:36.442Z,60.08
2023-04-05T01:15:35.083Z,59.87
2023-04-05T01:16:35.050Z,59.66
2023-04-05T01:17:35.094Z,59.76
2023-04-05T01:18:35.020Z,59.76
2023-04-05T01:19:35.013Z,59.66
2023-04-05T01:20:35.010Z,59.97
2023-04-05T01:21:34.991Z,59.87
2023-04-05T01:22:34.968Z,59.76
2023-04-05T01:23:34.957Z,59.76
2023-04-05T01:24:34.949Z,59.76
2023-04-05T01:25:34.935Z,59.87
2023-04-05T01:26:34.936Z,59.76
2023-04-05T01:27:34.919Z,59.45
2023-04-05T01:28:34.899Z,59.24
2023-04-05T01:29:34.893Z,59.24
2023-04-05T01:30:34.875Z,59.35
2023-04-05T01:31:34.968Z,59.35
2023-04-05T01:32:34.942Z,59.35
2023-04-05T01:33:35.267Z,59.14
2023-04-05T01:34:34.833Z,59.45
2023-04-05T01:35:34.876Z,59.55
2023-04-05T01:36:34.810Z,59.66
2023-04-05T01:37:34.801Z,59.87
2023-04-05T01:38:34.786Z,59.97
2023-04-05T01:39:34.779Z,60.18
2023-04-05T01:40:34.771Z,60.29
2023-04-05T01:41:34.759Z,60.29
2023-04-05T01:42:34.749Z,60.39
2023-04-05T01:43:34.740Z,60.49
2023-04-05T01:44:34.720Z,60.49
2023-04-05T01:45:34.712Z,60.60
2023-04-05T01:46:34.866Z,60.70
2023-04-05T01:47:34.698Z,60.80
2023-04-05T01:48:34.679Z,60.80
2023-04-05T01:49:34.689Z,61.01
2023-04-05T01:50:34.658Z,61.12
2023-04-05T01:51:34.662Z,61.22
2023-04-05T01:52:34.633Z,61.22
2023-04-05T01:53:34.625Z,61.32
2023-04-05T01:54:34.612Z,61.43
2023-04-05T01:55:34.604Z,61.53
2023-04-05T01:56:34.594Z,61.53
2023-04-05T01:57:34.583Z,61.53
2023-04-05T01:58:34.570Z,61.53
2023-04-05T01:59:34.588Z,61.63
2023-04-05T02:00:34.620Z,61.74
2023-04-05T02:01:34.541Z,61.84
2023-04-05T02:02:34.594Z,61.84
2023-04-05T02:03:34.618Z,61.95
2023-04-05T02:04:34.506Z,61.95
2023-04-05T02:05:34.518Z,61.95
2023-04-05T02:06:34.477Z,61.95
2023-04-05T02:07:34.466Z,61.95
2023-04-05T02:08:34.456Z,61.84
2023-04-05T02:09:34.446Z,62.05
2023-04-05T02:10:34.440Z,62.15
2023-04-05T02:11:34.420Z,62.05
2023-04-05T02:12:34.413Z,62.05
2023-04-05T02:13:34.402Z,61.84
2023-04-05T02:14:34.401Z,61.84
2023-04-05T02:15:34.378Z,61.84
2023-04-05T02:16:34.424Z,61.95
2023-04-05T02:17:34.480Z,62.05
2023-04-05T02:18:34.342Z,62.15
2023-04-05T02:19:34.334Z,62.15
2023-04-05T02:20:34.327Z,62.05
2023-04-05T02:21:34.336Z,61.95
2023-04-05T02:22:34.304Z,62.15
2023-04-05T02:23:34.310Z,62.05
2023-04-05T02:24:34.277Z,62.05
2023-04-05T02:25:34.283Z,62.05
2023-04-05T02:26:34.260Z,62.15
2023-04-05T02:27:34.242Z,62.23
2023-04-05T02:28:34.232Z,62.34
2023-04-05T02:29:34.222Z,62.34
2023-04-05T02:30:34.215Z,62.34
2023-04-05T02:31:34.260Z,62.34
2023-04-05T02:32:34.260Z,62.34
2023-04-05T02:33:34.177Z,62.34
2023-04-05T02:34:34.172Z,62.44
2023-04-05T02:35:34.194Z,62.54
2023-04-05T02:36:34.151Z,62.65
2023-04-05T02:37:34.154Z,62.65
2023-04-05T02:38:34.133Z,62.54
2023-04-05T02:39:34.117Z,62.65
2023-04-05T02:40:34.112Z,62.86
2023-04-05T02:41:34.107Z,62.96
2023-04-05T02:42:34.076Z,62.86
2023-04-05T02:43:34.085Z,62.86
2023-04-05T02:44:34.062Z,62.75
2023-04-05T02:45:34.064Z,62.75
2023-04-05T02:46:34.042Z,62.82
2023-04-05T02:47:34.054Z,62.82
2023-04-05T02:48:34.042Z,62.93
2023-04-05T02:49:34.005Z,62.96
2023-04-05T02:50:33.985Z,63.06
2023-04-05T02:51:33.978Z,63.17
2023-04-05T02:52:33.966Z,63.17
2023-04-05T02:53:33.985Z,63.27
2023-04-05T02:54:33.950Z,63.27
2023-04-05T02:55:33.941Z,63.48
2023-04-05T02:56:33.920Z,63.48
2023-04-05T02:57:33.910Z,63.58
2023-04-05T02:58:33.900Z,63.79
2023-04-05T02:59:33.915Z,63.79
2023-04-05T03:00:33.886Z,63.89
2023-04-05T03:01:33.878Z,63.89
2023-04-05T03:02:33.885Z,64.10
2023-04-05T03:03:33.858Z,64.00
2023-04-05T03:04:33.834Z,63.86
2023-04-05T03:05:33.831Z,63.97
2023-04-05T03:06:33.805Z,64.07
2023-04-05T03:07:33.795Z,64.07
2023-04-05T03:08:33.791Z,64.07
2023-04-05T03:09:33.881Z,64.28
2023-04-05T03:10:33.774Z,64.38
2023-04-05T03:11:34.175Z,64.28
2023-04-05T03:12:33.737Z,64.28
2023-04-05T03:13:33.727Z,64.38
2023-04-05T03:14:33.976Z,64.35
2023-04-05T03:15:33.708Z,64.35
2023-04-05T03:16:33.748Z,64.45
2023-04-05T03:17:33.708Z,64.45
2023-04-05T03:18:33.684Z,64.56
2023-04-05T03:19:33.661Z,64.77
2023-04-05T03:20:33.650Z,64.77
2023-04-05T03:21:33.645Z,65.00
2023-04-05T03:22:33.629Z,65.21
2023-04-05T03:23:33.630Z,65.42
2023-04-05T03:24:33.608Z,65.52
2023-04-05T03:25:33.615Z,65.52
2023-04-05T03:26:33.602Z,65.42
2023-04-05T03:27:33.580Z,65.42
2023-04-05T03:28:33.560Z,65.42
2023-04-05T03:29:33.556Z,65.52
2023-04-05T03:30:33.565Z,65.42
2023-04-05T03:31:33.551Z,65.52
2023-04-05T03:32:33.570Z,65.52
2023-04-05T03:33:33.508Z,65.42
2023-04-05T03:34:33.495Z,65.42
2023-04-05T03:35:33.512Z,65.73
2023-04-05T03:36:33.470Z,65.73
2023-04-05T03:37:33.459Z,65.83
2023-04-05T03:38:33.460Z,65.94
2023-04-05T03:39:33.437Z,65.94
2023-04-05T03:40:33.433Z,65.80
2023-04-05T03:41:33.452Z,65.60
2023-04-05T03:42:33.404Z,65.70
2023-04-05T03:43:33.401Z,65.80
2023-04-05T03:44:33.380Z,65.80
2023-04-05T03:45:33.371Z,66.01
2023-04-05T03:46:33.440Z,66.01
2023-04-05T03:47:33.396Z,66.22
2023-04-05T03:48:33.338Z,66.43
2023-04-05T03:49:33.334Z,66.57
2023-04-05T03:50:33.350Z,66.67
2023-04-05T03:51:33.353Z,66.77
2023-04-05T03:52:33.292Z,66.77
2023-04-05T03:53:33.281Z,66.88
2023-04-05T03:54:33.274Z,66.88
2023-04-05T03:55:33.263Z,66.88
2023-04-05T03:56:33.253Z,66.98
2023-04-05T03:57:33.270Z,67.08
2023-04-05T03:58:33.320Z,66.98
2023-04-05T03:59:33.257Z,66.98
2023-04-05T04:00:33.201Z,66.98
2023-04-05T04:01:33.191Z,66.95
2023-04-05T04:02:33.266Z,67.05
2023-04-05T04:03:33.170Z,67.05
2023-04-05T04:04:33.179Z,67.19
2023-04-05T04:05:33.152Z,67.29
2023-04-05T04:06:33.197Z,67.08
2023-04-05T04:07:33.129Z,67.19
2023-04-05T04:08:33.108Z,67.26
2023-04-05T04:09:33.096Z,67.47
2023-04-05T04:10:33.087Z,67.47
2023-04-05T04:11:33.075Z,67.37
2023-04-05T04:12:33.065Z,67.16
2023-04-05T04:13:33.083Z,67.05
2023-04-05T04:14:33.046Z,67.05
2023-04-05T04:15:33.044Z,67.05
2023-04-05T04:16:33.078Z,66.95
2023-04-05T04:17:35.043Z,66.95
2023-04-05T04:18:32.993Z,66.95
2023-04-05T04:19:32.981Z,66.95
2023-04-05T04:20:34.982Z,67.05
2023-04-05T04:21:34.961Z,67.05
2023-04-05T04:22:34.951Z,67.16
2023-04-05T04:23:32.944Z,67.05
2023-04-05T04:24:32.925Z,67.05
2023-04-05T04:25:32.930Z,67.05
2023-04-05T04:26:32.915Z,67.05
2023-04-05T04:27:34.893Z,67.05
2023-04-05T04:28:32.886Z,66.95
2023-04-05T04:29:32.906Z,66.95
2023-04-05T04:30:32.865Z,67.05
2023-04-05T04:31:32.900Z,67.05
2023-04-05T04:32:32.858Z,67.05
2023-04-05T04:33:32.830Z,67.16
2023-04-05T04:34:34.819Z,67.16
2023-04-05T04:35:32.856Z,67.05
2023-04-05T04:36:32.797Z,67.16
2023-04-05T04:37:32.788Z,67.26
2023-04-05T04:38:35.039Z,67.37
2023-04-05T04:39:37.384Z,67.37
2023-04-05T04:40:32.757Z,67.37
2023-04-05T04:41:34.738Z,67.37
2023-04-05T04:42:32.727Z,67.37
2023-04-05T04:43:34.726Z,67.37
2023-04-05T04:44:32.712Z,67.40
2023-04-05T04:45:32.744Z,67.37
2023-04-05T04:46:32.686Z,67.37
2023-04-05T04:47:34.665Z,67.47
2023-04-05T04:48:32.662Z,67.47
2023-04-05T04:49:32.656Z,67.57
2023-04-05T04:50:32.636Z,67.47
2023-04-05T04:51:32.626Z,67.37
2023-04-05T04:52:32.615Z,67.26
2023-04-05T04:53:32.609Z,67.05
2023-04-05T04:54:32.595Z,67.05
2023-04-05T04:55:32.585Z,66.95
2023-04-05T04:56:32.579Z,66.95
2023-04-05T04:57:32.577Z,67.05
2023-04-05T04:58:34.555Z,67.16
2023-04-05T04:59:32.604Z,67.16
2023-04-05T05:00:32.527Z,67.26
2023-04-05T05:01:32.612Z,67.16
2023-04-05T05:02:32.576Z,67.16
2023-04-05T05:03:32.495Z,66.92
2023-04-05T05:04:32.526Z,66.71
2023-04-05T05:05:32.471Z,66.71
2023-04-05T05:06:32.470Z,66.51
2023-04-05T05:07:32.455Z,66.51
2023-04-05T05:08:32.451Z,66.51
2023-04-05T05:09:32.429Z,66.40
2023-04-05T05:10:32.418Z,66.19
2023-04-05T05:11:32.409Z,66.19
2023-04-05T05:12:32.402Z,65.99
2023-04-05T05:13:32.391Z,65.78
2023-04-05T05:14:32.379Z,65.78
2023-04-05T05:15:32.366Z,65.78
2023-04-05T05:16:32.382Z,65.78
2023-04-05T05:17:32.431Z,65.78
2023-04-05T05:18:32.335Z,65.78
2023-04-05T05:19:32.333Z,65.78
2023-04-05T05:20:32.325Z,65.67
2023-04-05T05:21:32.297Z,65.67
2023-04-05T05:22:32.298Z,65.78
2023-04-05T05:23:32.274Z,65.67
2023-04-05T05:24:32.264Z,65.54
2023-04-05T05:25:32.254Z,65.23
2023-04-05T05:26:32.241Z,65.23
2023-04-05T05:27:32.237Z,65.13
2023-04-05T05:28:32.220Z,65.13
2023-04-05T05:29:32.211Z,65.13
2023-04-05T05:30:32.224Z,64.92
2023-04-05T05:31:32.253Z,64.81
2023-04-05T05:32:32.214Z,64.92
2023-04-05T05:33:32.189Z,64.81
2023-04-05T05:34:32.151Z,64.71
2023-04-05T05:35:32.162Z,64.81
2023-04-05T05:36:32.129Z,64.92
2023-04-05T05:37:32.142Z,64.71
2023-04-05T05:38:32.115Z,64.61
2023-04-05T05:39:32.106Z,64.61
2023-04-05T05:40:32.114Z,64.71
2023-04-05T05:41:32.083Z,64.68
2023-04-05T05:42:32.058Z,64.58
2023-04-05T05:43:32.045Z,64.37
2023-04-05T05:44:32.044Z,64.27
2023-04-05T05:45:32.025Z,64.47
2023-04-05T05:46:32.194Z,64.47
2023-04-05T05:47:32.013Z,64.37
2023-04-05T05:48:31.990Z,64.27
2023-04-05T05:49:32.002Z,64.27
2023-04-05T05:50:31.968Z,64.34
2023-04-05T05:51:31.958Z,64.13
2023-04-05T05:52:31.946Z,64.03
2023-04-05T05:53:31.932Z,64.13
2023-04-05T05:54:31.926Z,64.03
2023-04-05T05:55:31.915Z,63.79
2023-04-05T05:56:31.905Z,63.58
2023-04-05T05:57:31.954Z,63.27
2023-04-05T05:58:31.896Z,63.06
2023-04-05T05:59:31.952Z,63.06
2023-04-05T06:00:31.860Z,63.27
2023-04-05T06:01:31.844Z,63.35
2023-04-05T06:02:31.869Z,63.14
2023-04-05T06:03:32.017Z,62.93
2023-04-05T06:04:31.863Z,62.80
2023-04-05T06:05:31.831Z,62.70
2023-04-05T06:06:31.788Z,62.39
2023-04-05T06:07:31.786Z,61.95
2023-04-05T06:08:31.767Z,61.84
2023-04-05T06:09:31.765Z,61.63
2023-04-05T06:10:31.753Z,61.22
2023-04-05T06:11:31.745Z,61.22
2023-04-05T06:12:31.738Z,61.29
2023-04-05T06:13:31.746Z,60.99
2023-04-05T06:14:31.705Z,60.96
2023-04-05T06:15:31.686Z,60.65
2023-04-05T06:16:31.704Z,60.44
2023-04-05T06:17:31.703Z,60.13
2023-04-05T06:18:31.653Z,60.44
2023-04-05T06:19:31.643Z,60.65
2023-04-05T06:20:31.635Z,60.44
2023-04-05T06:21:31.642Z,60.10
2023-04-05T06:22:31.604Z,59.89
2023-04-05T06:23:31.608Z,59.89
2023-04-05T06:24:31.586Z,60.10
2023-04-05T06:25:31.585Z,59.79
2023-04-05T06:26:31.567Z,59.56
2023-04-05T06:27:31.553Z,59.66
2023-04-05T06:28:31.541Z,59.43
2023-04-05T06:29:31.527Z,58.94
2023-04-05T06:30:31.520Z,59.04
2023-04-05T06:31:31.535Z,59.04
2023-04-05T06:32:31.524Z,59.14
2023-04-05T06:33:31.484Z,58.70
2023-04-05T06:34:31.479Z,58.39
2023-04-05T06:35:31.477Z,58.06
2023-04-05T06:36:31.444Z,57.65
2023-04-05T06:37:31.475Z,57.78
2023-04-05T06:38:31.430Z,58.53
2023-04-05T06:39:31.411Z,58.50
2023-04-05T06:40:31.400Z,58.19
2023-04-05T06:41:31.386Z,58.09
2023-04-05T06:42:31.377Z,57.88
2023-04-05T06:43:31.367Z,58.39
2023-04-05T06:44:31.356Z,58.70
2023-04-05T06:45:31.392Z,59.02
2023-04-05T06:46:31.434Z,58.70
2023-04-05T06:47:31.372Z,58.47
2023-04-05T06:48:31.312Z,58.24
2023-04-05T06:49:31.297Z,58.14
2023-04-05T06:50:31.289Z,57.44
2023-04-05T06:51:31.272Z,58.16
2023-04-05T06:52:31.431Z,58.37
2023-04-05T06:53:31.278Z,58.14
2023-04-05T06:54:31.238Z,57.72
2023-04-05T06:55:31.233Z,57.39
2023-04-05T06:56:31.223Z,57.49
2023-04-05T06:57:31.216Z,57.28
2023-04-05T06:58:31.207Z,57.28
2023-04-05T06:59:31.265Z,56.87
2023-04-05T07:00:31.207Z,57.18
2023-04-05T07:01:31.245Z,57.39
2023-04-05T07:02:31.426Z,57.91
2023-04-05T07:03:31.170Z,58.31
2023-04-05T07:04:31.166Z,58.08
2023-04-05T07:05:31.117Z,57.77
2023-04-05T07:06:31.109Z,57.57
2023-04-05T07:07:31.103Z,57.70
2023-04-05T07:08:31.085Z,57.91
2023-04-05T07:09:31.095Z,58.01
2023-04-05T07:10:31.066Z,58.01
2023-04-05T07:11:31.051Z,58.21
2023-04-05T07:12:31.041Z,58.31
2023-04-05T07:13:31.171Z,58.21
2023-04-05T07:14:31.032Z,58.29
2023-04-05T07:15:31.010Z,57.98
2023-04-05T07:16:31.028Z,57.98
2023-04-05T07:17:31.015Z,58.08
2023-04-05T07:18:30.998Z,57.87
2023-04-05T07:19:30.960Z,58.31
2023-04-05T07:20:30.953Z,58.73
2023-04-05T07:21:30.954Z,58.63
2023-04-05T07:22:30.938Z,58.70
2023-04-05T07:23:30.919Z,58.39
2023-04-05T07:24:30.906Z,58.36
2023-04-05T07:25:30.922Z,58.47
2023-04-05T07:26:30.896Z,58.13
2023-04-05T07:27:30.873Z,57.62
2023-04-05T07:28:30.866Z,57.41
2023-04-05T07:29:30.865Z,57.28
2023-04-05T07:30:30.840Z,57.28
2023-04-05T07:31:30.836Z,56.95
2023-04-05T07:32:30.904Z,56.54
2023-04-05T07:33:30.812Z,56.10
2023-04-05T07:34:30.804Z,55.79
2023-04-05T07:35:30.824Z,55.79
2023-04-05T07:36:30.778Z,55.89
2023-04-05T07:37:30.770Z,55.99
2023-04-05T07:38:30.761Z,55.74
2023-04-05T07:39:30.739Z,54.94
2023-04-05T07:40:30.752Z,53.77
2023-04-05T07:41:30.751Z,52.49
2023-04-05T07:42:30.711Z,51.11
2023-04-05T07:43:30.693Z,50.57
2023-04-05T07:44:30.689Z,49.81
2023-04-05T07:45:30.679Z,49.20
2023-04-05T07:46:30.709Z,49.12
2023-04-05T07:47:30.667Z,49.61
2023-04-05T07:48:30.646Z,49.10
2023-04-05T07:49:30.633Z,48.66
2023-04-05T07:50:30.618Z,48.46
2023-04-05T07:51:30.605Z,48.46
2023-04-05T07:52:30.595Z,48.46
2023-04-05T07:53:30.590Z,48.52
2023-04-05T07:54:30.573Z,47.66
2023-04-05T07:55:30.562Z,46.90
2023-04-05T07:56:30.556Z,45.94
2023-04-05T07:57:30.606Z,45.31
2023-04-05T07:58:30.535Z,45.19
2023-04-05T07:59:30.539Z,44.66
2023-04-05T08:00:30.518Z,44.46
2023-04-05T08:01:30.495Z,43.93
2023-04-05T08:02:30.537Z,43.40
2023-04-05T08:03:30.504Z,42.98
2023-04-05T08:04:30.457Z,42.67
2023-04-05T08:05:30.477Z,42.67
2023-04-05T08:06:30.431Z,42.45
2023-04-05T08:07:30.419Z,42.24
2023-04-05T08:08:30.420Z,41.72
2023-04-05T08:09:30.407Z,41.62
2023-04-05T08:10:30.405Z,41.94
2023-04-05T08:11:30.383Z,41.92
2023-04-05T08:12:30.366Z,42.13
2023-04-05T08:13:30.377Z,41.52
2023-04-05T08:14:30.350Z,41.82
2023-04-05T08:15:30.334Z,42.27
2023-04-05T08:16:30.372Z,42.77
2023-04-05T08:17:30.363Z,42.75
2023-04-05T08:18:30.297Z,42.73
2023-04-05T08:19:30.307Z,42.81
2023-04-05T08:20:30.278Z,42.07
2023-04-05T08:21:30.278Z,41.64
2023-04-05T08:22:30.256Z,41.00
2023-04-05T08:23:30.246Z,39.78
2023-04-05T08:24:30.293Z,39.58
2023-04-05T08:25:30.224Z,40.20
2023-04-05T08:26:30.211Z,40.51
2023-04-05T08:27:30.204Z,40.19
2023-04-05T08:28:30.191Z,39.28
2023-04-05T08:29:30.239Z,38.23
2023-04-05T08:30:30.158Z,37.93
2023-04-05T08:31:30.185Z,38.22
2023-04-05T08:32:30.174Z,38.00
2023-04-05T08:33:30.132Z,37.59
2023-04-05T08:34:30.117Z,37.17
2023-04-05T08:35:30.137Z,37.06
2023-04-05T08:36:30.099Z,36.43
2023-04-05T08:37:30.089Z,36.01
2023-04-05T08:38:30.076Z,35.91
2023-04-05T08:39:30.060Z,35.91
2023-04-05T08:40:30.047Z,35.79
2023-04-05T08:41:30.059Z,35.93
2023-04-05T08:42:30.044Z,36.23
2023-04-05T08:43:30.020Z,36.21
2023-04-05T08:44:30.012Z,36.21
2023-04-05T08:45:30.081Z,35.91
2023-04-05T08:46:30.045Z,35.93
2023-04-05T08:47:30.001Z,36.45
2023-04-05T08:48:29.960Z,36.63
2023-04-05T08:49:30.048Z,36.21
2023-04-05T08:50:29.942Z,36.41
2023-04-05T08:51:29.962Z,36.70
2023-04-05T08:52:29.917Z,35.98
2023-04-05T08:53:29.910Z,35.68
2023-04-05T08:54:29.897Z,35.46
2023-04-05T08:55:29.893Z,35.57
2023-04-05T08:56:29.879Z,35.69
2023-04-05T08:57:29.864Z,35.61
2023-04-05T08:58:29.849Z,36.53
2023-04-05T08:59:29.901Z,37.06
2023-04-05T09:00:29.846Z,37.37
2023-04-05T09:01:29.871Z,37.96
2023-04-05T09:02:29.873Z,37.35
2023-04-05T09:03:29.952Z,36.63
2023-04-05T09:04:29.787Z,36.43
2023-04-05T09:05:29.790Z,36.73
2023-04-05T09:06:29.761Z,37.02
2023-04-05T09:07:29.752Z,36.92
2023-04-05T09:08:29.737Z,36.51
2023-04-05T09:09:29.732Z,36.82
2023-04-05T09:10:29.719Z,36.73
2023-04-05T09:11:29.709Z,37.06
2023-04-05T09:12:29.699Z,37.26
2023-04-05T09:13:29.683Z,37.54
2023-04-05T09:14:29.672Z,36.51
2023-04-05T09:15:29.672Z,36.08
2023-04-05T09:16:29.731Z,36.11
2023-04-05T09:17:29.759Z,36.73
2023-04-05T09:18:29.651Z,37.02
2023-04-05T09:19:29.617Z,36.84
2023-04-05T09:20:29.623Z,37.24
2023-04-05T09:21:29.597Z,37.06
2023-04-05T09:22:29.599Z,37.89
2023-04-05T09:23:29.571Z,37.71
2023-04-05T09:24:29.562Z,38.33
2023-04-05T09:25:29.565Z,38.42
2023-04-05T09:26:31.341Z,38.20
2023-04-05T09:27:29.535Z,37.17
2023-04-05T09:28:29.517Z,37.17
2023-04-05T09:29:29.521Z,37.15
2023-04-05T09:30:29.515Z,37.06
2023-04-05T09:31:29.574Z,36.84
2023-04-05T09:32:29.581Z,36.82
2023-04-05T09:33:29.491Z,36.40
2023-04-05T09:34:29.450Z,35.66
2023-04-05T09:35:29.436Z,35.47
2023-04-05T09:36:29.423Z,35.68
2023-04-05T09:37:29.416Z,35.38
2023-04-05T09:38:29.408Z,35.71
2023-04-05T09:39:29.431Z,36.59
2023-04-05T09:40:29.394Z,37.73
2023-04-05T09:41:29.377Z,38.13
2023-04-05T09:42:29.358Z,37.91
2023-04-05T09:43:29.432Z,37.91
2023-04-05T09:44:29.342Z,38.31
2023-04-05T09:45:29.323Z,38.37
2023-04-05T09:46:29.325Z,38.69
2023-04-05T09:47:29.371Z,38.87
2023-04-05T09:48:29.294Z,39.22
2023-04-05T09:49:29.316Z,40.02
2023-04-05T09:50:29.270Z,40.02
2023-04-05T09:51:29.262Z,40.04
2023-04-05T09:52:29.253Z,40.06
2023-04-05T09:53:29.241Z,40.18
2023-04-05T09:54:29.221Z,40.81
2023-04-05T09:55:29.222Z,41.13
2023-04-05T09:56:29.197Z,41.44
2023-04-05T09:57:29.196Z,41.84
2023-04-05T09:58:29.171Z,41.23
2023-04-05T09:59:29.206Z,41.64
2023-04-05T10:00:29.155Z,41.44
2023-04-05T10:01:29.148Z,41.03
2023-04-05T10:02:29.320Z,41.11
2023-04-05T10:03:29.194Z,40.63
2023-04-05T10:04:29.109Z,40.58
2023-04-05T10:05:29.121Z,39.84
2023-04-05T10:06:29.081Z,38.91
2023-04-05T10:07:29.076Z,38.31
2023-04-05T10:08:29.056Z,38.20
2023-04-05T10:09:29.045Z,38.00
2023-04-05T10:10:29.037Z,37.56
2023-04-05T10:11:29.038Z,37.44
2023-04-05T10:12:29.012Z,37.24
2023-04-05T10:13:29.008Z,37.14
2023-04-05T10:14:28.999Z,37.54
2023-04-05T10:15:29.081Z,36.60
2023-04-05T10:16:29.043Z,36.18
2023-04-05T10:17:29.067Z,36.05
2023-04-05T10:18:28.939Z,35.65
2023-04-05T10:19:28.937Z,35.44
2023-04-05T10:20:28.928Z,36.16
2023-04-05T10:21:28.952Z,36.16
2023-04-05T10:22:28.906Z,36.50
2023-04-05T10:23:28.886Z,37.21
2023-04-05T10:24:28.886Z,37.43
2023-04-05T10:25:28.865Z,37.54
2023-04-05T10:26:28.860Z,38.37
2023-04-05T10:27:28.841Z,39.52
2023-04-05T10:28:30.389Z,39.76
2023-04-05T10:29:28.924Z,39.80
2023-04-05T10:30:28.807Z,39.81
2023-04-05T10:31:37.774Z,40.74
2023-04-05T10:32:28.842Z,40.56
2023-04-05T10:33:28.893Z,41.60
2023-04-05T10:34:28.819Z,41.27
2023-04-05T10:35:28.796Z,41.05
2023-04-05T10:36:28.778Z,40.63
2023-04-05T10:37:28.783Z,40.93
2023-04-05T10:38:28.764Z,41.35
2023-04-05T10:39:28.711Z,40.68
2023-04-05T10:40:28.692Z,42.29
2023-04-05T10:41:28.812Z,43.67
2023-04-05T10:42:28.684Z,44.70
2023-04-05T10:43:28.658Z,45.36
2023-04-05T10:44:28.689Z,45.64
2023-04-05T10:45:28.742Z,45.34
2023-04-05T10:46:28.752Z,45.44
2023-04-05T10:47:28.816Z,45.46
2023-04-05T10:48:28.605Z,46.22
2023-04-05T10:49:28.588Z,47.49
2023-04-05T10:50:28.586Z,48.33
2023-04-05T10:51:28.570Z,48.00
2023-04-05T10:52:28.604Z,47.46
2023-04-05T10:53:28.571Z,47.05
2023-04-05T10:54:28.615Z,47.24
2023-04-05T10:55:28.522Z,46.11
2023-04-05T10:56:28.549Z,46.34
2023-04-05T10:57:28.508Z,46.24
2023-04-05T10:58:28.487Z,46.65
2023-04-05T10:59:28.541Z,46.73
2023-04-05T11:00:28.463Z,46.02
2023-04-05T11:01:28.630Z,46.11
2023-04-05T11:02:28.467Z,46.14
2023-04-05T11:03:28.581Z,46.75
2023-04-05T11:04:28.437Z,46.55
2023-04-05T11:05:28.424Z,46.55
2023-04-05T11:06:28.406Z,46.63
2023-04-05T11:07:28.390Z,46.20
2023-04-05T11:08:28.398Z,45.79
2023-04-05T11:09:28.406Z,46.11
2023-04-05T11:10:28.369Z,46.40
2023-04-05T11:11:28.557Z,46.09
2023-04-05T11:12:28.335Z,45.69
2023-04-05T11:13:28.325Z,46.50
2023-04-05T11:14:28.326Z,46.50
2023-04-05T11:15:28.331Z,46.40
2023-04-05T11:16:28.316Z,46.28
2023-04-05T11:17:28.296Z,46.73
2023-04-05T11:18:28.272Z,46.91
2023-04-05T11:19:28.280Z,46.69
2023-04-05T11:20:28.252Z,45.75
2023-04-05T11:21:28.238Z,45.11
2023-04-05T11:22:28.265Z,45.30
2023-04-05T11:23:28.220Z,44.89
2023-04-05T11:24:28.204Z,44.64
2023-04-05T11:25:28.226Z,44.32
2023-04-05T11:26:28.183Z,43.91
2023-04-05T11:27:28.172Z,44.23
2023-04-05T11:28:28.164Z,44.64
2023-04-05T11:29:28.145Z,44.03
2023-04-05T11:30:28.138Z,44.97
2023-04-05T11:31:28.176Z,44.97
2023-04-05T11:32:28.138Z,44.64
2023-04-05T11:33:28.105Z,44.87
2023-04-05T11:34:28.097Z,44.84
2023-04-05T11:35:28.081Z,44.95
2023-04-05T11:36:28.068Z,45.05
2023-04-05T11:37:28.061Z,44.87
2023-04-05T11:38:28.046Z,45.80
2023-04-05T11:39:28.045Z,46.24
2023-04-05T11:40:28.034Z,46.15
2023-04-05T11:41:28.045Z,46.38
2023-04-05T11:42:28.124Z,46.58
2023-04-05T11:43:27.995Z,46.78
2023-04-05T11:44:27.977Z,46.78
2023-04-05T11:45:29.955Z,46.99
2023-04-05T11:46:27.970Z,47.52
2023-04-05T11:47:27.971Z,48.46
2023-04-05T11:48:27.934Z,48.54
2023-04-05T11:49:27.931Z,48.24
2023-04-05T11:50:27.912Z,48.90
2023-04-05T11:51:27.903Z,49.12
2023-04-05T11:52:27.891Z,49.86
2023-04-05T11:53:27.883Z,50.17
2023-04-05T11:54:27.866Z,50.04
2023-04-05T11:55:27.857Z,49.94
2023-04-05T11:56:27.854Z,49.61
2023-04-05T11:57:27.872Z,48.98
2023-04-05T11:58:27.821Z,47.93
2023-04-05T11:59:27.852Z,47.93
2023-04-05T12:00:27.800Z,47.52
2023-04-05T12:01:27.794Z,47.09
2023-04-05T12:02:27.881Z,46.58
2023-04-05T12:03:27.798Z,46.69
2023-04-05T12:04:27.817Z,47.30
2023-04-05T12:05:27.743Z,47.30
2023-04-05T12:06:27.733Z,47.39
2023-04-05T12:07:27.735Z,47.17
2023-04-05T12:08:27.708Z,46.56
2023-04-05T12:09:27.702Z,46.86
2023-04-05T12:10:27.686Z,46.36
2023-04-05T12:11:27.682Z,46.33
2023-04-05T12:12:27.663Z,46.44
2023-04-05T12:13:27.680Z,45.83
2023-04-05T12:14:27.644Z,46.15
2023-04-05T12:15:27.631Z,46.74
2023-04-05T12:16:27.805Z,46.52
2023-04-05T12:17:27.643Z,45.98
2023-04-05T12:18:27.595Z,45.98
2023-04-05T12:19:27.590Z,46.50
2023-04-05T12:20:27.572Z,46.90
2023-04-05T12:21:27.567Z,46.17
2023-04-05T12:22:27.551Z,46.29
2023-04-05T12:23:27.540Z,46.39
2023-04-05T12:24:27.529Z,46.62
2023-04-05T12:25:27.524Z,46.82
2023-04-05T12:26:27.506Z,46.54
2023-04-05T12:27:27.503Z,47.15
2023-04-05T12:28:27.490Z,47.35
2023-04-05T12:29:27.507Z,47.66
2023-04-05T12:30:27.484Z,47.76
2023-04-05T12:31:27.469Z,47.25
2023-04-05T12:32:27.478Z,46.85
2023-04-05T12:33:27.456Z,46.56
2023-04-05T12:34:27.422Z,47.42
2023-04-05T12:35:27.406Z,47.95
2023-04-05T12:36:27.398Z,48.66
2023-04-05T12:37:27.381Z,48.36
2023-04-05T12:38:27.386Z,48.44
2023-04-05T12:39:27.359Z,47.91
2023-04-05T12:40:27.353Z,47.80
2023-04-05T12:41:27.343Z,47.58
2023-04-05T12:42:27.334Z,47.68
2023-04-05T12:43:27.368Z,47.58
2023-04-05T12:44:27.312Z,47.60
2023-04-05T12:45:27.323Z,47.50
2023-04-05T12:46:27.351Z,47.39
2023-04-05T12:47:27.284Z,47.80
2023-04-05T12:48:27.261Z,48.32
2023-04-05T12:49:27.254Z,47.79
2023-04-05T12:50:27.238Z,47.56
2023-04-05T12:51:27.232Z,47.23
2023-04-05T12:52:27.215Z,46.29